createdAt,value
2024-03-04T00:01:35.887Z,10.73
2024-03-04T00:06:38.985Z,10.72
2024-03-04T00:11:43.588Z,10.62
2024-03-04T00:16:48.910Z,10.64
2024-03-04T00:21:52.218Z,10.56
2024-03-04T00:26:57.235Z,10.57
2024-03-04T00:32:00.610Z,10.58
2024-03-04T00:37:04.914Z,10.60
2024-03-04T00:42:09.789Z,10.62
2024-03-04T00:47:12.879Z,10.63
2024-03-04T00:52:16.390Z,10.67
2024-03-04T00:57:22.261Z,10.67
2024-03-04T01:02:25.637Z,10.66
2024-03-04T01:07:30.369Z,10.62
2024-03-04T01:12:34.922Z,10.62
2024-03-04T01:17:37.999Z,10.58
2024-03-04T01:22:41.847Z,10.64
2024-03-04T01:27:46.642Z,10.64
2024-03-04T01:32:49.829Z,10.68
2024-03-04T01:37:52.938Z,10.66
2024-03-04T01:42:58.015Z,10.69
2024-03-04T01:48:03.076Z,10.62
2024-03-04T01:53:07.397Z,10.68
2024-03-04T01:58:13.463Z,10.71
2024-03-04T02:03:18.997Z,10.69
2024-03-04T02:08:22.209Z,10.67
2024-03-04T02:13:27.072Z,10.58
2024-03-04T02:18:31.381Z,10.58
2024-03-04T02:23:35.912Z,10.58
2024-03-04T02:28:40.588Z,10.62
2024-03-04T02:33:45.834Z,10.68
2024-03-04T02:38:50.424Z,10.60
2024-03-04T02:43:53.482Z,10.60
2024-03-04T02:48:56.614Z,10.57
2024-03-04T02:54:01.082Z,10.58
2024-03-04T02:59:04.257Z,10.57
2024-03-04T03:04:07.362Z,10.59
2024-03-04T03:09:12.756Z,10.56
2024-03-04T03:14:16.669Z,10.55
2024-03-04T03:19:24.943Z,10.62
2024-03-04T03:24:29.442Z,10.57
2024-03-04T03:29:32.491Z,10.62
2024-03-04T03:34:35.806Z,10.67
2024-03-04T03:39:40.258Z,10.61
2024-03-04T03:44:43.336Z,10.71
2024-03-04T03:49:46.459Z,10.73
2024-03-04T03:54:50.911Z,10.80
2024-03-04T03:59:54.041Z,10.78
2024-03-04T04:04:57.185Z,10.76
2024-03-04T04:10:01.692Z,10.48
2024-03-04T04:15:05.373Z,10.30
2024-03-04T04:20:09.573Z,10.27
2024-03-04T04:25:14.700Z,10.20
2024-03-04T04:30:18.484Z,10.34
2024-03-04T04:35:21.807Z,10.39
2024-03-04T04:40:26.316Z,10.29
2024-03-04T04:45:29.442Z,10.45
2024-03-04T04:50:33.050Z,10.49
2024-03-04T04:55:38.323Z,10.31
2024-03-04T05:00:42.807Z,10.42
2024-03-04T05:05:45.902Z,10.57
2024-03-04T05:10:50.530Z,10.56
2024-03-04T05:15:54.326Z,10.54
2024-03-04T05:20:57.455Z,10.49
2024-03-04T05:26:02.124Z,10.22
2024-03-04T05:31:05.420Z,10.28
2024-03-04T05:36:09.929Z,10.22
2024-03-04T05:41:14.464Z,10.16
2024-03-04T05:46:17.669Z,10.40
2024-03-04T05:51:21.165Z,10.49
2024-03-04T05:56:25.585Z,10.43
2024-03-04T06:01:28.706Z,10.48
2024-03-04T06:06:31.792Z,10.58
2024-03-04T06:11:36.492Z,10.62
2024-03-04T06:16:39.704Z,10.62
2024-03-04T06:21:43.774Z,10.63
2024-03-04T06:26:49.584Z,10.63
2024-03-04T06:31:55.875Z,10.69
2024-03-04T06:36:59.375Z,10.69
2024-03-04T06:42:04.216Z,10.66
2024-03-04T06:47:07.629Z,10.69
2024-03-04T06:52:10.933Z,10.84
2024-03-04T06:57:18.404Z,10.89
2024-03-04T07:02:21.637Z,10.87
2024-03-04T07:07:26.113Z,10.81
2024-03-04T07:12:30.871Z,10.85
2024-03-04T07:17:35.712Z,10.71
2024-03-04T07:22:39.310Z,10.82
2024-03-04T07:27:43.815Z,10.90
2024-03-04T07:32:46.936Z,11.02
2024-03-04T07:37:50.054Z,11.07
2024-03-04T07:42:54.537Z,11.08
2024-03-04T07:47:58.209Z,11.03
2024-03-04T07:53:01.358Z,11.02
2024-03-04T07:58:06.236Z,11.07
2024-03-04T08:03:10.195Z,11.18
2024-03-04T08:08:13.237Z,11.12
2024-03-04T08:13:17.776Z,11.13
2024-03-04T08:18:21.293Z,11.23
2024-03-04T08:23:24.981Z,11.16
2024-03-04T08:28:35.187Z,11.28
2024-03-04T08:33:39.365Z,11.45
2024-03-04T08:38:42.423Z,11.54
2024-03-04T08:43:48.826Z,11.59
2024-03-04T08:48:52.027Z,11.72
2024-03-04T08:53:55.077Z,11.78
2024-03-04T08:59:00.990Z,11.90
2024-03-04T09:04:04.320Z,12.02
2024-03-04T09:09:09.625Z,11.99
2024-03-04T09:14:14.185Z,12.07
2024-03-04T09:19:17.464Z,12.12
2024-03-04T09:24:20.567Z,12.18
2024-03-04T09:29:26.002Z,12.18
2024-03-04T09:34:29.131Z,12.20
2024-03-04T09:39:32.260Z,12.33
2024-03-04T09:44:36.826Z,12.45
2024-03-04T09:49:40.677Z,12.65
2024-03-04T09:54:44.143Z,12.73
2024-03-04T09:59:50.482Z,12.83
2024-03-04T10:04:54.235Z,12.94
2024-03-04T10:09:58.575Z,13.04
2024-03-04T10:15:11.078Z,13.10
2024-03-04T10:20:14.827Z,13.38
2024-03-04T10:25:18.048Z,13.49
2024-03-04T10:30:25.789Z,13.55
2024-03-04T10:35:29.800Z,13.53
2024-03-04T10:40:35.282Z,13.59
2024-03-04T10:45:40.961Z,13.81
2024-03-04T10:50:44.064Z,13.76
2024-03-04T10:55:48.060Z,13.82
2024-03-04T11:00:52.620Z,14.09
2024-03-04T11:05:57.419Z,14.31
2024-03-04T11:11:04.974Z,14.32
2024-03-04T11:16:13.972Z,14.34
2024-03-04T11:21:17.558Z,14.49
2024-03-04T11:26:21.894Z,14.52
2024-03-04T11:31:27.896Z,14.66
2024-03-04T11:36:31.573Z,14.74
2024-03-04T11:41:41.907Z,14.76
2024-03-04T11:46:47.206Z,14.91
2024-03-04T11:51:58.709Z,14.95
2024-03-04T11:57:02.456Z,14.92
2024-03-04T12:02:13.176Z,14.56
2024-03-04T12:07:16.595Z,14.87
2024-03-04T12:12:19.746Z,14.95
2024-03-04T12:17:24.461Z,14.86
2024-03-04T12:22:31.563Z,15.01
2024-03-04T12:27:37.782Z,15.30
2024-03-04T12:32:42.790Z,15.42
2024-03-04T12:37:46.120Z,15.58
2024-03-04T12:42:54.120Z,15.57
2024-03-04T12:47:59.347Z,15.56
2024-03-04T12:53:02.697Z,15.52
2024-03-04T12:58:05.989Z,15.74
2024-03-04T13:03:10.449Z,15.89
2024-03-04T13:08:13.624Z,16.13
2024-03-04T13:13:16.734Z,16.02
2024-03-04T13:18:21.310Z,15.93
2024-03-04T13:23:24.408Z,15.75
2024-03-04T13:28:27.567Z,15.80
2024-03-04T13:33:32.085Z,15.85
2024-03-04T13:38:35.239Z,15.91
2024-03-04T13:43:38.643Z,16.03
2024-03-04T13:48:43.081Z,16.01
2024-03-04T13:53:48.586Z,15.85
2024-03-04T13:58:52.452Z,15.73
2024-03-04T14:03:56.947Z,15.71
2024-03-04T14:09:00.426Z,15.68
2024-03-04T14:14:03.501Z,15.74
2024-03-04T14:19:08.097Z,15.74
2024-03-04T14:24:11.368Z,15.73
2024-03-04T14:29:14.437Z,15.69
2024-03-04T14:34:18.900Z,15.68
2024-03-04T14:39:21.966Z,15.60
2024-03-04T14:44:25.055Z,15.39
2024-03-04T14:49:30.050Z,15.25
2024-03-04T14:54:33.166Z,15.24
2024-03-04T14:59:37.176Z,15.38
2024-03-04T15:04:42.637Z,15.45
2024-03-04T15:09:45.992Z,15.49
2024-03-04T15:14:49.068Z,15.44
2024-03-04T15:19:53.610Z,15.39
2024-03-04T15:24:56.935Z,15.28
2024-03-04T15:29:59.978Z,14.88
2024-03-04T15:35:07.545Z,14.77
2024-03-04T15:40:13.894Z,15.00
2024-03-04T15:45:17.200Z,15.09
2024-03-04T15:50:21.924Z,15.16
2024-03-04T15:55:25.010Z,15.05
2024-03-04T16:00:28.142Z,15.11
2024-03-04T16:05:32.641Z,15.08
2024-03-04T16:10:35.892Z,15.09
2024-03-04T16:15:45.265Z,15.01
2024-03-04T16:20:56.688Z,14.92
2024-03-04T16:25:59.947Z,14.86
2024-03-04T16:31:03.087Z,14.79
2024-03-04T16:36:08.335Z,14.74
2024-03-04T16:41:21.061Z,14.67
2024-03-04T16:46:24.119Z,14.32
2024-03-04T16:51:28.834Z,14.33
2024-03-04T16:56:32.809Z,14.25
2024-03-04T17:01:38.940Z,14.29
2024-03-04T17:06:47.696Z,14.25
2024-03-04T17:11:51.023Z,14.19
2024-03-04T17:16:56.361Z,14.07
2024-03-04T17:22:00.925Z,13.99
2024-03-04T17:27:04.105Z,13.89
2024-03-04T17:32:08.392Z,13.83
2024-03-04T17:37:12.878Z,13.83
2024-03-04T17:42:17.192Z,13.76
2024-03-04T17:47:21.566Z,13.74
2024-03-04T17:52:26.026Z,13.72
2024-03-04T17:57:29.338Z,13.69
2024-03-04T18:02:32.443Z,13.58
2024-03-04T18:07:37.054Z,13.57
2024-03-04T18:12:40.161Z,13.57
2024-03-04T18:17:43.796Z,13.53
2024-03-04T18:22:48.348Z,13.50
2024-03-04T18:27:51.687Z,13.48
2024-03-04T18:32:54.923Z,13.41
2024-03-04T18:38:00.128Z,13.28
2024-03-04T18:43:04.041Z,13.18
2024-03-04T18:48:08.220Z,13.06
2024-03-04T18:53:12.707Z,13.17
2024-03-04T18:58:15.834Z,13.11
2024-03-04T19:03:18.985Z,13.15
2024-03-04T19:08:23.442Z,13.05
2024-03-04T19:13:27.880Z,13.00
2024-03-04T19:18:30.946Z,12.91
2024-03-04T19:23:35.656Z,12.84
2024-03-04T19:28:38.886Z,12.79
2024-03-04T19:33:42.026Z,12.71
2024-03-04T19:38:46.543Z,12.65
2024-03-04T19:43:49.798Z,12.65
2024-03-04T19:48:54.016Z,12.59
2024-03-04T19:53:59.193Z,12.58
2024-03-04T19:59:02.425Z,12.51
2024-03-04T20:04:05.840Z,12.49
2024-03-04T20:09:14.707Z,12.33
2024-03-04T20:14:17.869Z,12.37
2024-03-04T20:19:20.999Z,12.27
2024-03-04T20:24:25.891Z,12.16
2024-03-04T20:29:28.931Z,12.11
2024-03-04T20:34:32.097Z,12.12
2024-03-04T20:39:36.593Z,12.12
2024-03-04T20:44:39.987Z,12.11
2024-03-04T20:49:43.433Z,12.16
2024-03-04T20:54:47.940Z,12.22
2024-03-04T20:59:51.029Z,12.13
2024-03-04T21:04:54.417Z,12.06
2024-03-04T21:09:58.908Z,12.02
2024-03-04T21:15:01.992Z,12.06
2024-03-04T21:20:06.272Z,12.00
2024-03-04T21:25:13.229Z,11.95
2024-03-04T21:30:16.961Z,11.86
2024-03-04T21:35:20.277Z,11.83
2024-03-04T21:40:24.945Z,11.74
2024-03-04T21:45:28.072Z,11.67
2024-03-04T21:50:31.123Z,11.58
2024-03-04T21:55:35.617Z,11.52
2024-03-04T22:00:38.886Z,11.48
2024-03-04T22:05:41.948Z,11.38
2024-03-04T22:10:46.508Z,11.32
2024-03-04T22:15:49.877Z,11.27
2024-03-04T22:20:52.983Z,11.29
2024-03-04T22:25:57.483Z,11.23
2024-03-04T22:31:00.621Z,11.21
2024-03-04T22:36:04.367Z,11.25
2024-03-04T22:41:08.786Z,11.27
2024-03-04T22:46:11.983Z,11.26
2024-03-04T22:51:15.162Z,11.31
2024-03-04T22:56:19.645Z,11.34
2024-03-04T23:01:29.865Z,11.31
2024-03-04T23:06:33.149Z,11.37
2024-03-04T23:11:37.806Z,11.34
2024-03-04T23:16:42.502Z,11.33
2024-03-04T23:21:47.525Z,11.37
2024-03-04T23:26:51.927Z,11.38
2024-03-04T23:31:55.483Z,11.36
2024-03-04T23:36:59.433Z,11.39
2024-03-04T23:42:03.936Z,11.41
2024-03-04T23:47:08.266Z,11.32
2024-03-04T23:52:11.298Z,11.33
2024-03-04T23:57:15.801Z,11.22
